Wetterdaten: aktuell Montag, 04.05.2026 17:50
Datum Zeit Temperatur Luftfeuchte Luftdruck Regen Wind Richtung Richtung Taupunkt Windchill Windböen
04.05.2026 17:50 24,3 °C 37 % 1009,8 hPa 0,0 l/m² 3,5 km/h (1 Bft) N-NW 348 ° 8,7 °C 24,3 °C 6,4 km/h (2 Bft)
04.05.2026 17:45 24,4 °C 36 % 1009,7 hPa 0,0 l/m² 3,1 km/h (1 Bft) N-NO 26 ° 8,4 °C 24,4 °C 8,0 km/h (2 Bft)
04.05.2026 17:40 24,5 °C 35 % 1009,7 hPa 0,0 l/m² 1,7 km/h (1 Bft) N-NO 30 ° 8,0 °C 24,5 °C 8,0 km/h (2 Bft)
04.05.2026 17:35 24,5 °C 35 % 1009,8 hPa 0,0 l/m² 3,9 km/h (1 Bft) N-NO 17 ° 8,0 °C 24,5 °C 9,7 km/h (2 Bft)
04.05.2026 17:30 24,4 °C 35 % 1009,8 hPa 0,0 l/m² 1,6 km/h (1 Bft) N-NO 14 ° 7,9 °C 24,4 °C 4,8 km/h (1 Bft)
04.05.2026 17:25 24,4 °C 33 % 1009,8 hPa 0,0 l/m² 1,7 km/h (1 Bft) O-NO 58 ° 7,1 °C 24,4 °C 4,8 km/h (1 Bft)
04.05.2026 17:20 24,3 °C 37 % 1009,8 hPa 0,0 l/m² 0,4 km/h (0 Bft) O 94 ° 8,7 °C 24,3 °C 1,6 km/h (1 Bft)
04.05.2026 17:15 24,3 °C 36 % 1009,9 hPa 0,0 l/m² 2,5 km/h (1 Bft) N 360 ° 8,3 °C 24,3 °C 6,4 km/h (2 Bft)
04.05.2026 17:10 24,5 °C 34 % 1009,9 hPa 0,0 l/m² 3,1 km/h (1 Bft) O-SO 103 ° 7,6 °C 24,5 °C 6,4 km/h (2 Bft)
04.05.2026 17:05 24,6 °C 35 % 1009,9 hPa 0,0 l/m² 4,1 km/h (1 Bft) SO 126 ° 8,1 °C 24,6 °C 11,3 km/h (2 Bft)
04.05.2026 17:00 24,6 °C 35 % 1010,0 hPa 0,0 l/m² 3,8 km/h (1 Bft) O 80 ° 8,1 °C 24,6 °C 9,7 km/h (2 Bft)
04.05.2026 16:55 24,8 °C 35 % 1010,0 hPa 0,0 l/m² 3,7 km/h (1 Bft) S-SO 153 ° 8,3 °C 24,8 °C 9,7 km/h (2 Bft)
04.05.2026 16:50 25,3 °C 33 % 1010,0 hPa 0,0 l/m² 1,2 km/h (1 Bft) O-SO 102 ° 7,9 °C 25,3 °C 4,8 km/h (1 Bft)
04.05.2026 16:45 24,5 °C 34 % 1010,1 hPa 0,0 l/m² 1,7 km/h (1 Bft) SO 140 ° 7,6 °C 24,5 °C 4,8 km/h (1 Bft)
04.05.2026 16:40 24,5 °C 34 % 1010,2 hPa 0,0 l/m² 2,6 km/h (1 Bft) O 99 ° 7,6 °C 24,5 °C 9,7 km/h (2 Bft)
04.05.2026 16:35 24,8 °C 32 % 1010,2 hPa 0,0 l/m² 5,8 km/h (2 Bft) O-SO 107 ° 7,0 °C 24,8 °C 11,3 km/h (2 Bft)
04.05.2026 16:30 24,7 °C 34 % 1010,3 hPa 0,0 l/m² 3,7 km/h (1 Bft) SO 144 ° 7,8 °C 24,7 °C 9,7 km/h (2 Bft)
04.05.2026 16:25 24,8 °C 35 % 1010,4 hPa 0,0 l/m² 2,9 km/h (1 Bft) S-SW 193 ° 8,3 °C 24,8 °C 6,4 km/h (2 Bft)
04.05.2026 16:20 24,6 °C 37 % 1010,4 hPa 0,0 l/m² 2,3 km/h (1 Bft) N-NO 19 ° 8,9 °C 24,6 °C 8,0 km/h (2 Bft)
04.05.2026 16:15 24,6 °C 37 % 1010,5 hPa 0,0 l/m² 4,5 km/h (1 Bft) O-NO 58 ° 8,9 °C 24,6 °C 12,9 km/h (3 Bft)
04.05.2026 16:10 24,6 °C 37 % 1010,6 hPa 0,0 l/m² 2,6 km/h (1 Bft) N-NO 32 ° 8,9 °C 24,6 °C 6,4 km/h (2 Bft)
04.05.2026 16:05 24,6 °C 37 % 1010,6 hPa 0,0 l/m² 3,8 km/h (1 Bft) NO 50 ° 8,9 °C 24,6 °C 8,0 km/h (2 Bft)
04.05.2026 16:00 24,6 °C 37 % 1010,7 hPa 0,0 l/m² 2,2 km/h (1 Bft) O-NO 63 ° 8,9 °C 24,6 °C 6,4 km/h (2 Bft)
04.05.2026 15:55 24,6 °C 37 % 1010,8 hPa 0,0 l/m² 2,0 km/h (1 Bft) O-NO 75 ° 8,9 °C 24,6 °C 11,3 km/h (2 Bft)
04.05.2026 15:50 24,6 °C 37 % 1010,7 hPa 0,0 l/m² 2,9 km/h (1 Bft) O-NO 57 ° 8,9 °C 24,6 °C 6,4 km/h (2 Bft)
04.05.2026 15:45 24,6 °C 37 % 1010,8 hPa 0,0 l/m² 2,5 km/h (1 Bft) N-NW 334 ° 8,9 °C 24,6 °C 6,4 km/h (2 Bft)
04.05.2026 15:40 24,6 °C 37 % 1010,9 hPa 0,0 l/m² 6,6 km/h (2 Bft) SO 131 ° 8,9 °C 24,6 °C 12,9 km/h (3 Bft)
04.05.2026 15:35 24,6 °C 37 % 1010,8 hPa 0,0 l/m² 4,3 km/h (1 Bft) S-SO 150 ° 8,9 °C 24,6 °C 8,0 km/h (2 Bft)
04.05.2026 15:30 24,6 °C 37 % 1010,9 hPa 0,0 l/m² 3,1 km/h (1 Bft) O-NO 78 ° 8,9 °C 24,6 °C 9,7 km/h (2 Bft)
04.05.2026 15:25 24,6 °C 37 % 1011,0 hPa 0,0 l/m² 3,9 km/h (1 Bft) O-SO 107 ° 8,9 °C 24,6 °C 11,3 km/h (2 Bft)
04.05.2026 15:20 24,6 °C 37 % 1011,0 hPa 0,0 l/m² 5,3 km/h (1 Bft) N-NO 24 ° 8,9 °C 24,6 °C 12,9 km/h (3 Bft)
04.05.2026 15:15 24,6 °C 37 % 1011,1 hPa 0,0 l/m² 3,8 km/h (1 Bft) O-NO 59 ° 8,9 °C 24,6 °C 8,0 km/h (2 Bft)
04.05.2026 15:10 24,6 °C 37 % 1011,1 hPa 0,0 l/m² 5,8 km/h (2 Bft) O-NO 62 ° 8,9 °C 24,6 °C 12,9 km/h (3 Bft)
04.05.2026 15:05 24,6 °C 37 % 1011,2 hPa 0,0 l/m² 3,2 km/h (1 Bft) N-NO 15 ° 8,9 °C 24,6 °C 12,9 km/h (3 Bft)
04.05.2026 15:00 24,3 °C 36 % 1011,3 hPa 0,0 l/m² 2,6 km/h (1 Bft) SO 126 ° 8,3 °C 24,3 °C 6,4 km/h (2 Bft)
04.05.2026 14:55 24,3 °C 38 % 1011,3 hPa 0,0 l/m² 2,8 km/h (1 Bft) O-NO 78 ° 9,1 °C 24,3 °C 6,4 km/h (2 Bft)
04.05.2026 14:50 24,4 °C 39 % 1011,4 hPa 0,0 l/m² 4,5 km/h (1 Bft) O-NO 64 ° 9,5 °C 24,4 °C 11,3 km/h (2 Bft)
04.05.2026 14:45 24,2 °C 36 % 1011,4 hPa 0,0 l/m² 3,5 km/h (1 Bft) N 360 ° 8,2 °C 24,2 °C 9,7 km/h (2 Bft)
04.05.2026 14:40 24,6 °C 39 % 1011,5 hPa 0,0 l/m² 3,3 km/h (1 Bft) NO 37 ° 9,7 °C 24,6 °C 8,0 km/h (2 Bft)
04.05.2026 14:35 23,7 °C 39 % 1011,6 hPa 0,0 l/m² 3,9 km/h (1 Bft) NO 47 ° 8,9 °C 23,7 °C 9,7 km/h (2 Bft)
04.05.2026 14:30 23,7 °C 39 % 1011,7 hPa 0,0 l/m² 6,8 km/h (2 Bft) O-SO 116 ° 8,9 °C 23,6 °C 11,3 km/h (2 Bft)
04.05.2026 14:25 24,0 °C 39 % 1011,8 hPa 0,0 l/m² 3,2 km/h (1 Bft) O 92 ° 9,2 °C 24,0 °C 12,9 km/h (3 Bft)
04.05.2026 14:20 23,6 °C 37 % 1011,9 hPa 0,0 l/m² 4,7 km/h (1 Bft) NO 45 ° 8,0 °C 23,6 °C 9,7 km/h (2 Bft)
04.05.2026 14:15 23,7 °C 38 % 1011,9 hPa 0,0 l/m² 2,8 km/h (1 Bft) NO 54 ° 8,5 °C 23,7 °C 9,7 km/h (2 Bft)
04.05.2026 14:10 23,9 °C 38 % 1012,0 hPa 0,0 l/m² 2,6 km/h (1 Bft) SO 132 ° 8,7 °C 23,9 °C 6,4 km/h (2 Bft)
04.05.2026 14:05 23,9 °C 37 % 1012,0 hPa 0,0 l/m² 6,8 km/h (2 Bft) N-NW 329 ° 8,3 °C 23,8 °C 14,5 km/h (3 Bft)
04.05.2026 14:00 23,7 °C 38 % 1012,0 hPa 0,0 l/m² 4,8 km/h (1 Bft) N 5 ° 8,5 °C 23,7 °C 17,7 km/h (3 Bft)
04.05.2026 13:55 23,4 °C 37 % 1012,1 hPa 0,0 l/m² 2,4 km/h (1 Bft) W-SW 254 ° 7,9 °C 23,4 °C 6,4 km/h (2 Bft)
04.05.2026 13:50 23,4 °C 39 % 1012,3 hPa 0,0 l/m² 2,8 km/h (1 Bft) O 92 ° 8,6 °C 23,4 °C 8,0 km/h (2 Bft)
04.05.2026 13:45 23,3 °C 38 % 1012,3 hPa 0,0 l/m² 3,8 km/h (1 Bft) S-SO 155 ° 8,2 °C 23,3 °C 9,7 km/h (2 Bft)
04.05.2026 13:40 23,3 °C 41 % 1012,4 hPa 0,0 l/m² 5,7 km/h (2 Bft) S 180 ° 9,3 °C 23,3 °C 11,3 km/h (2 Bft)
04.05.2026 13:35 23,3 °C 39 % 1012,4 hPa 0,0 l/m² 5,6 km/h (2 Bft) O-SO 121 ° 8,6 °C 23,3 °C 11,3 km/h (2 Bft)
04.05.2026 13:30 23,1 °C 41 % 1012,4 hPa 0,0 l/m² 4,6 km/h (1 Bft) S 169 ° 9,1 °C 23,1 °C 11,3 km/h (2 Bft)
04.05.2026 13:25 23,1 °C 41 % 1012,6 hPa 0,0 l/m² 5,0 km/h (1 Bft) O 100 ° 9,1 °C 23,1 °C 11,3 km/h (2 Bft)
04.05.2026 13:20 23,3 °C 40 % 1012,6 hPa 0,0 l/m² 7,1 km/h (2 Bft) S-SO 163 ° 8,9 °C 23,1 °C 12,9 km/h (3 Bft)
04.05.2026 13:15 23,5 °C 40 % 1012,7 hPa 0,0 l/m² 4,1 km/h (1 Bft) S 169 ° 9,1 °C 23,5 °C 8,0 km/h (2 Bft)
04.05.2026 13:10 23,0 °C 40 % 1012,7 hPa 0,0 l/m² 5,9 km/h (2 Bft) W-SW 241 ° 8,7 °C 23,0 °C 12,9 km/h (3 Bft)
04.05.2026 13:05 23,1 °C 42 % 1012,7 hPa 0,0 l/m² 5,9 km/h (2 Bft) S-SO 160 ° 9,5 °C 23,1 °C 12,9 km/h (3 Bft)
04.05.2026 13:00 22,5 °C 40 % 1012,8 hPa 0,0 l/m² 3,0 km/h (1 Bft) N-NW 340 ° 8,2 °C 22,5 °C 9,7 km/h (2 Bft)
04.05.2026 12:55 22,7 °C 42 % 1012,8 hPa 0,0 l/m² 2,7 km/h (1 Bft) W-NW 302 ° 9,1 °C 22,7 °C 6,4 km/h (2 Bft)
04.05.2026 12:50 22,3 °C 40 % 1012,9 hPa 0,0 l/m² 3,8 km/h (1 Bft) O 89 ° 8,0 °C 22,3 °C 11,3 km/h (2 Bft)
04.05.2026 12:45 22,6 °C 39 % 1013,0 hPa 0,0 l/m² 3,7 km/h (1 Bft) S-SO 161 ° 7,9 °C 22,6 °C 6,4 km/h (2 Bft)
04.05.2026 12:40 23,3 °C 41 % 1013,1 hPa 0,0 l/m² 7,9 km/h (2 Bft) NO 44 ° 9,3 °C 22,8 °C 12,9 km/h (3 Bft)
04.05.2026 12:35 22,9 °C 41 % 1013,1 hPa 0,0 l/m² 8,4 km/h (2 Bft) NW 313 ° 8,9 °C 22,3 °C 14,5 km/h (3 Bft)
04.05.2026 12:30 22,1 °C 41 % 1013,3 hPa 0,0 l/m² 2,1 km/h (1 Bft) N-NW 329 ° 8,2 °C 22,1 °C 12,9 km/h (3 Bft)
04.05.2026 12:25 22,3 °C 40 % 1013,4 hPa 0,0 l/m² 4,1 km/h (1 Bft) W-NW 284 ° 8,0 °C 22,3 °C 9,7 km/h (2 Bft)
04.05.2026 12:20 22,3 °C 40 % 1013,4 hPa 0,0 l/m² 7,4 km/h (2 Bft) W 261 ° 8,0 °C 22,0 °C 17,7 km/h (3 Bft)
04.05.2026 12:15 22,2 °C 39 % 1013,5 hPa 0,0 l/m² 9,5 km/h (2 Bft) W 267 ° 7,6 °C 21,2 °C 16,1 km/h (3 Bft)
04.05.2026 12:10 21,9 °C 40 % 1013,5 hPa 0,0 l/m² 3,5 km/h (1 Bft) W 260 ° 7,7 °C 21,9 °C 8,0 km/h (2 Bft)
04.05.2026 12:05 22,0 °C 40 % 1013,5 hPa 0,0 l/m² 3,7 km/h (1 Bft) S 182 ° 7,8 °C 22,0 °C 9,7 km/h (2 Bft)
04.05.2026 12:00 21,7 °C 41 % 1013,5 hPa 0,0 l/m² 6,8 km/h (2 Bft) NW 323 ° 7,9 °C 21,6 °C 17,7 km/h (3 Bft)
04.05.2026 11:55 21,6 °C 41 % 1013,6 hPa 0,0 l/m² 3,7 km/h (1 Bft) NW 306 ° 7,8 °C 21,6 °C 8,0 km/h (2 Bft)
04.05.2026 11:50 21,6 °C 40 % 1013,7 hPa 0,0 l/m² 6,7 km/h (2 Bft) N-NO 24 ° 7,4 °C 21,5 °C 14,5 km/h (3 Bft)
04.05.2026 11:45 21,7 °C 41 % 1013,7 hPa 0,0 l/m² 8,2 km/h (2 Bft) N-NO 19 ° 7,9 °C 21,1 °C 14,5 km/h (3 Bft)
04.05.2026 11:40 21,7 °C 41 % 1013,8 hPa 0,0 l/m² 4,3 km/h (1 Bft) W 277 ° 7,9 °C 21,7 °C 9,7 km/h (2 Bft)
04.05.2026 11:35 21,5 °C 42 % 1013,8 hPa 0,0 l/m² 3,8 km/h (1 Bft) W 261 ° 8,0 °C 21,5 °C 9,7 km/h (2 Bft)
04.05.2026 11:30 21,2 °C 42 % 1013,8 hPa 0,0 l/m² 6,8 km/h (2 Bft) W 271 ° 7,8 °C 21,1 °C 14,5 km/h (3 Bft)
04.05.2026 11:25 21,2 °C 41 % 1013,9 hPa 0,0 l/m² 5,3 km/h (1 Bft) W 275 ° 7,4 °C 21,2 °C 11,3 km/h (2 Bft)
04.05.2026 11:20 21,4 °C 41 % 1014,0 hPa 0,0 l/m² 9,1 km/h (2 Bft) NW 315 ° 7,6 °C 20,5 °C 19,3 km/h (3 Bft)
04.05.2026 11:15 21,0 °C 44 % 1014,1 hPa 0,0 l/m² 3,4 km/h (1 Bft) N-NW 342 ° 8,3 °C 21,0 °C 8,0 km/h (2 Bft)
04.05.2026 11:10 20,9 °C 43 % 1014,1 hPa 0,0 l/m² 7,5 km/h (2 Bft) N-NW 348 ° 7,8 °C 20,5 °C 12,9 km/h (3 Bft)
04.05.2026 11:05 20,7 °C 43 % 1014,2 hPa 0,0 l/m² 5,5 km/h (2 Bft) NW 312 ° 7,7 °C 20,7 °C 12,9 km/h (3 Bft)
04.05.2026 11:00 20,6 °C 42 % 1014,1 hPa 0,0 l/m² 7,0 km/h (2 Bft) N-NO 15 ° 7,2 °C 20,4 °C 12,9 km/h (3 Bft)
04.05.2026 10:55 20,7 °C 44 % 1014,0 hPa 0,0 l/m² 7,0 km/h (2 Bft) N 5 ° 8,0 °C 20,5 °C 14,5 km/h (3 Bft)
04.05.2026 10:50 20,8 °C 44 % 1014,1 hPa 0,0 l/m² 7,6 km/h (2 Bft) NO 34 ° 8,1 °C 20,3 °C 14,5 km/h (3 Bft)
04.05.2026 10:45 20,9 °C 43 % 1014,1 hPa 0,0 l/m² 7,1 km/h (2 Bft) N-NW 335 ° 7,8 °C 20,6 °C 12,9 km/h (3 Bft)
04.05.2026 10:40 20,5 °C 42 % 1014,2 hPa 0,0 l/m² 8,2 km/h (2 Bft) N-NW 340 ° 7,1 °C 19,8 °C 14,5 km/h (3 Bft)
04.05.2026 10:35 20,3 °C 43 % 1014,2 hPa 0,0 l/m² 9,8 km/h (2 Bft) NW 305 ° 7,3 °C 19,0 °C 16,1 km/h (3 Bft)
04.05.2026 10:30 19,9 °C 44 % 1014,3 hPa 0,0 l/m² 9,5 km/h (2 Bft) W 280 ° 7,3 °C 18,7 °C 16,1 km/h (3 Bft)
04.05.2026 10:25 20,0 °C 45 % 1014,2 hPa 0,0 l/m² 10,8 km/h (2 Bft) N-NW 343 ° 7,7 °C 18,4 °C 16,1 km/h (3 Bft)
04.05.2026 10:20 19,8 °C 44 % 1014,3 hPa 0,0 l/m² 9,9 km/h (2 Bft) NW 321 ° 7,2 °C 18,5 °C 16,1 km/h (3 Bft)
04.05.2026 10:15 19,6 °C 45 % 1014,3 hPa 0,0 l/m² 9,7 km/h (2 Bft) N 5 ° 7,3 °C 18,3 °C 16,1 km/h (3 Bft)
04.05.2026 10:10 19,3 °C 47 % 1014,4 hPa 0,0 l/m² 7,9 km/h (2 Bft) NW 323 ° 7,7 °C 18,7 °C 19,3 km/h (3 Bft)
04.05.2026 10:05 19,6 °C 46 % 1014,4 hPa 0,0 l/m² 7,7 km/h (2 Bft) NW 317 ° 7,7 °C 19,1 °C 16,1 km/h (3 Bft)
04.05.2026 10:00 19,2 °C 47 % 1014,4 hPa 0,0 l/m² 8,7 km/h (2 Bft) W-SW 248 ° 7,6 °C 18,2 °C 17,7 km/h (3 Bft)
04.05.2026 09:55 18,9 °C 49 % 1014,4 hPa 0,0 l/m² 7,8 km/h (2 Bft) W-NW 292 ° 7,9 °C 18,3 °C 16,1 km/h (3 Bft)
04.05.2026 09:50 19,0 °C 47 % 1014,5 hPa 0,0 l/m² 10,8 km/h (2 Bft) NW 312 ° 7,4 °C 17,3 °C 17,7 km/h (3 Bft)
04.05.2026 09:45 19,1 °C 48 % 1014,4 hPa 0,0 l/m² 9,0 km/h (2 Bft) W-NW 298 ° 7,8 °C 18,0 °C 16,1 km/h (3 Bft)
04.05.2026 09:40 19,1 °C 49 % 1014,4 hPa 0,0 l/m² 7,8 km/h (2 Bft) N-NO 13 ° 8,1 °C 18,5 °C 14,5 km/h (3 Bft)
04.05.2026 09:35 19,1 °C 49 % 1014,5 hPa 0,0 l/m² 12,9 km/h (3 Bft) NW 310 ° 8,1 °C 16,7 °C 19,3 km/h (3 Bft)
_ Min-Zeit 23:15 18:30 17:40 - 19:05 - - 18:30 23:25 19:05
Minimum _ 11,3 °C 22 % 1009,7 hPa - 0,0 km/h (0 Bft) - - 2,8 °C 8,4 °C 0,0 km/h (0 Bft)
_ Max-Zeit 18:00 21:15 09:30 18:00 23:45 - - 19:50 18:05 23:45
Maximum _ 26,4 °C 68 % 1014,5 hPa 0,0 l/m² 19,8 km/h
W-NW (3 Bft)
- - 11,1 °C 26,4 °C 27,4 km/h
W-NW (5 Bft)
Durchschnitt _ 19,4 °C 48 % 1012,4 hPa #0,0 l/m² 6,5 km/h (2 Bft) W - 7,5 °C 18,6 °C 10,9 km/h (2 Bft)
© Wettermessnetz Ostbayern